sensor_id;sensor_type;location;lat;lon;timestamp;pressure;altitude;pressure_sealevel;temperature;humidity
51999;BME280;38015;50.924;11.598;2022-09-21T00:02:07;100357.05;;;19.47;41.79
51999;BME280;38015;50.924;11.598;2022-09-21T00:04:37;100355.86;;;19.39;41.95
51999;BME280;38015;50.924;11.598;2022-09-21T00:07:08;100358.54;;;19.34;42.08
51999;BME280;38015;50.924;11.598;2022-09-21T00:09:38;100359.09;;;19.36;41.99
51999;BME280;38015;50.924;11.598;2022-09-21T00:12:08;100356.87;;;19.37;41.98
51999;BME280;38015;50.924;11.598;2022-09-21T00:14:39;100355.94;;;19.38;41.97
51999;BME280;38015;50.924;11.598;2022-09-21T00:17:09;100353.91;;;19.37;41.92
51999;BME280;38015;50.924;11.598;2022-09-21T00:19:40;100349.96;;;19.41;41.88
51999;BME280;38015;50.924;11.598;2022-09-21T00:22:10;100350.78;;;19.37;41.96
51999;BME280;38015;50.924;11.598;2022-09-21T00:24:41;100355.22;;;19.40;41.87
51999;BME280;38015;50.924;11.598;2022-09-21T00:27:11;100355.68;;;19.40;41.85
51999;BME280;38015;50.924;11.598;2022-09-21T00:29:42;100355.32;;;19.39;41.84
51999;BME280;38015;50.924;11.598;2022-09-21T00:32:12;100357.24;;;19.36;41.91
51999;BME280;38015;50.924;11.598;2022-09-21T00:34:43;100357.94;;;19.38;41.79
51999;BME280;38015;50.924;11.598;2022-09-21T00:37:13;100358.15;;;19.37;41.88
51999;BME280;38015;50.924;11.598;2022-09-21T00:39:44;100357.95;;;19.37;41.81
51999;BME280;38015;50.924;11.598;2022-09-21T00:42:18;100359.86;;;19.38;41.86
51999;BME280;38015;50.924;11.598;2022-09-21T00:44:45;100362.72;;;19.35;41.93
51999;BME280;38015;50.924;11.598;2022-09-21T00:47:18;100364.41;;;19.30;42.05
51999;BME280;38015;50.924;11.598;2022-09-21T00:49:48;100368.36;;;19.34;41.92
51999;BME280;38015;50.924;11.598;2022-09-21T00:52:17;100372.79;;;19.39;41.80
51999;BME280;38015;50.924;11.598;2022-09-21T00:54:51;100376.05;;;19.36;41.84
51999;BME280;38015;50.924;11.598;2022-09-21T00:57:20;100377.11;;;19.39;41.78
51999;BME280;38015;50.924;11.598;2022-09-21T00:59:50;100376.84;;;19.39;41.70
51999;BME280;38015;50.924;11.598;2022-09-21T01:02:18;100374.19;;;19.37;41.80
51999;BME280;38015;50.924;11.598;2022-09-21T01:04:51;100375.94;;;19.37;41.79
51999;BME280;38015;50.924;11.598;2022-09-21T01:07:21;100377.41;;;19.42;41.67
51999;BME280;38015;50.924;11.598;2022-09-21T01:09:52;100376.53;;;19.36;41.81
51999;BME280;38015;50.924;11.598;2022-09-21T01:12:32;100376.07;;;19.34;41.82
51999;BME280;38015;50.924;11.598;2022-09-21T01:14:57;100377.49;;;19.39;41.74
51999;BME280;38015;50.924;11.598;2022-09-21T01:17:29;100382.20;;;19.38;41.72
51999;BME280;38015;50.924;11.598;2022-09-21T01:20:07;100387.08;;;19.37;41.82
51999;BME280;38015;50.924;11.598;2022-09-21T01:22:31;100386.85;;;19.35;41.80
51999;BME280;38015;50.924;11.598;2022-09-21T01:25:03;100388.91;;;19.39;41.71
51999;BME280;38015;50.924;11.598;2022-09-21T01:27:32;100389.35;;;19.31;41.89
51999;BME280;38015;50.924;11.598;2022-09-21T01:29:57;100388.32;;;19.33;41.83
51999;BME280;38015;50.924;11.598;2022-09-21T01:32:26;100387.57;;;19.35;41.79
51999;BME280;38015;50.924;11.598;2022-09-21T01:34:59;100388.06;;;19.36;41.83
51999;BME280;38015;50.924;11.598;2022-09-21T01:37:32;100387.25;;;19.36;41.77
51999;BME280;38015;50.924;11.598;2022-09-21T01:39:59;100387.94;;;19.32;41.87
51999;BME280;38015;50.924;11.598;2022-09-21T01:42:27;100392.28;;;19.36;41.77
51999;BME280;38015;50.924;11.598;2022-09-21T01:44:58;100395.90;;;19.39;41.71
51999;BME280;38015;50.924;11.598;2022-09-21T01:47:28;100398.82;;;19.39;41.70
51999;BME280;38015;50.924;11.598;2022-09-21T01:50:00;100399.57;;;19.27;41.97
51999;BME280;38015;50.924;11.598;2022-09-21T01:52:33;100398.54;;;19.32;41.88
51999;BME280;38015;50.924;11.598;2022-09-21T01:55:02;100394.40;;;19.32;41.83
51999;BME280;38015;50.924;11.598;2022-09-21T01:57:37;100392.94;;;19.34;41.76
51999;BME280;38015;50.924;11.598;2022-09-21T02:00:00;100393.11;;;19.33;41.83
51999;BME280;38015;50.924;11.598;2022-09-21T02:02:34;100393.84;;;19.39;41.68
51999;BME280;38015;50.924;11.598;2022-09-21T02:05:01;100395.96;;;19.36;41.72
51999;BME280;38015;50.924;11.598;2022-09-21T02:07:31;100395.77;;;19.26;41.90
51999;BME280;38015;50.924;11.598;2022-09-21T02:10:03;100399.19;;;19.28;41.87
51999;BME280;38015;50.924;11.598;2022-09-21T02:12:32;100404.02;;;19.35;41.72
51999;BME280;38015;50.924;11.598;2022-09-21T02:15:03;100403.89;;;19.36;41.71
51999;BME280;38015;50.924;11.598;2022-09-21T02:17:37;100406.49;;;19.34;41.74
51999;BME280;38015;50.924;11.598;2022-09-21T02:20:13;100409.02;;;19.37;41.71
51999;BME280;38015;50.924;11.598;2022-09-21T02:22:39;100411.35;;;19.34;41.71
51999;BME280;38015;50.924;11.598;2022-09-21T02:25:07;100413.91;;;19.32;41.81
51999;BME280;38015;50.924;11.598;2022-09-21T02:27:41;100410.98;;;19.35;41.68
51999;BME280;38015;50.924;11.598;2022-09-21T02:30:07;100411.48;;;19.34;41.72
51999;BME280;38015;50.924;11.598;2022-09-21T02:32:41;100411.21;;;19.34;41.67
51999;BME280;38015;50.924;11.598;2022-09-21T02:35:11;100410.82;;;19.33;41.79
51999;BME280;38015;50.924;11.598;2022-09-21T02:37:43;100412.03;;;19.34;41.67
51999;BME280;38015;50.924;11.598;2022-09-21T02:40:15;100411.27;;;19.33;41.73
51999;BME280;38015;50.924;11.598;2022-09-21T02:42:40;100407.51;;;19.33;41.67
51999;BME280;38015;50.924;11.598;2022-09-21T02:45:12;100404.25;;;19.33;41.69
51999;BME280;38015;50.924;11.598;2022-09-21T02:47:43;100401.45;;;19.30;41.76
51999;BME280;38015;50.924;11.598;2022-09-21T02:50:13;100401.88;;;19.31;41.71
51999;BME280;38015;50.924;11.598;2022-09-21T02:52:41;100403.69;;;19.33;41.67
51999;BME280;38015;50.924;11.598;2022-09-21T02:55:10;100405.51;;;19.32;41.66
51999;BME280;38015;50.924;11.598;2022-09-21T02:57:40;100407.72;;;19.29;41.72
51999;BME280;38015;50.924;11.598;2022-09-21T03:00:11;100410.13;;;19.32;41.61
51999;BME280;38015;50.924;11.598;2022-09-21T03:02:43;100412.27;;;19.30;41.66
51999;BME280;38015;50.924;11.598;2022-09-21T03:05:13;100411.73;;;19.23;41.86
51999;BME280;38015;50.924;11.598;2022-09-21T03:07:42;100413.79;;;19.21;41.90
51999;BME280;38015;50.924;11.598;2022-09-21T03:10:13;100414.60;;;19.31;41.64
51999;BME280;38015;50.924;11.598;2022-09-21T03:12:43;100411.82;;;19.20;41.90
51999;BME280;38015;50.924;11.598;2022-09-21T03:15:14;100412.05;;;19.27;41.72
51999;BME280;38015;50.924;11.598;2022-09-21T03:17:44;100416.47;;;19.22;41.78
51999;BME280;38015;50.924;11.598;2022-09-21T03:20:14;100414.51;;;19.23;41.74
51999;BME280;38015;50.924;11.598;2022-09-21T03:22:45;100418.02;;;19.30;41.68
51999;BME280;38015;50.924;11.598;2022-09-21T03:25:16;100418.03;;;19.26;41.68
51999;BME280;38015;50.924;11.598;2022-09-21T03:27:46;100421.06;;;19.25;41.75
51999;BME280;38015;50.924;11.598;2022-09-21T03:30:16;100423.07;;;19.28;41.65
51999;BME280;38015;50.924;11.598;2022-09-21T03:32:48;100424.03;;;19.32;41.62
51999;BME280;38015;50.924;11.598;2022-09-21T03:35:18;100425.33;;;19.30;41.64
51999;BME280;38015;50.924;11.598;2022-09-21T03:37:49;100424.95;;;19.26;41.72
51999;BME280;38015;50.924;11.598;2022-09-21T03:40:19;100424.06;;;19.27;41.69
51999;BME280;38015;50.924;11.598;2022-09-21T03:42:49;100426.31;;;19.25;41.72
51999;BME280;38015;50.924;11.598;2022-09-21T03:45:20;100429.80;;;19.17;41.88
51999;BME280;38015;50.924;11.598;2022-09-21T03:47:50;100430.64;;;19.28;41.63
51999;BME280;38015;50.924;11.598;2022-09-21T03:50:20;100428.71;;;19.25;41.64
51999;BME280;38015;50.924;11.598;2022-09-21T03:52:51;100428.45;;;19.27;41.65
51999;BME280;38015;50.924;11.598;2022-09-21T03:55:22;100432.20;;;19.22;41.73
51999;BME280;38015;50.924;11.598;2022-09-21T03:57:53;100430.90;;;19.23;41.69
51999;BME280;38015;50.924;11.598;2022-09-21T04:00:22;100435.27;;;19.24;41.67
51999;BME280;38015;50.924;11.598;2022-09-21T04:02:53;100436.20;;;19.25;41.63
51999;BME280;38015;50.924;11.598;2022-09-21T04:05:24;100434.80;;;19.25;41.66
51999;BME280;38015;50.924;11.598;2022-09-21T04:07:55;100440.90;;;19.31;41.52
51999;BME280;38015;50.924;11.598;2022-09-21T04:10:24;100439.96;;;19.31;41.48
51999;BME280;38015;50.924;11.598;2022-09-21T04:12:56;100438.22;;;19.19;41.73
51999;BME280;38015;50.924;11.598;2022-09-21T04:15:25;100436.48;;;19.26;41.60
51999;BME280;38015;50.924;11.598;2022-09-21T04:17:56;100436.49;;;19.22;41.66
51999;BME280;38015;50.924;11.598;2022-09-21T04:20:26;100437.57;;;19.22;41.66
51999;BME280;38015;50.924;11.598;2022-09-21T04:22:57;100439.83;;;19.21;41.72
51999;BME280;38015;50.924;11.598;2022-09-21T04:25:27;100442.05;;;19.18;41.77
51999;BME280;38015;50.924;11.598;2022-09-21T04:27:58;100443.21;;;19.25;41.64
51999;BME280;38015;50.924;11.598;2022-09-21T04:30:28;100443.19;;;19.26;41.62
51999;BME280;38015;50.924;11.598;2022-09-21T04:32:59;100443.99;;;19.22;41.68
51999;BME280;38015;50.924;11.598;2022-09-21T04:35:29;100442.88;;;19.24;41.65
51999;BME280;38015;50.924;11.598;2022-09-21T04:38:00;100443.47;;;19.22;41.65
51999;BME280;38015;50.924;11.598;2022-09-21T04:40:30;100444.60;;;19.23;41.60
51999;BME280;38015;50.924;11.598;2022-09-21T04:43:01;100445.74;;;19.28;41.53
51999;BME280;38015;50.924;11.598;2022-09-21T04:45:31;100446.45;;;19.21;41.68
51999;BME280;38015;50.924;11.598;2022-09-21T04:48:01;100446.09;;;19.22;41.64
51999;BME280;38015;50.924;11.598;2022-09-21T04:50:32;100447.94;;;19.24;41.63
51999;BME280;38015;50.924;11.598;2022-09-21T04:53:03;100449.47;;;19.23;41.60
51999;BME280;38015;50.924;11.598;2022-09-21T04:55:33;100449.84;;;19.28;41.47
51999;BME280;38015;50.924;11.598;2022-09-21T04:58:07;100452.68;;;19.20;41.67
51999;BME280;38015;50.924;11.598;2022-09-21T05:00:34;100455.37;;;19.22;41.62
51999;BME280;38015;50.924;11.598;2022-09-21T05:03:04;100458.05;;;19.25;41.56
51999;BME280;38015;50.924;11.598;2022-09-21T05:05:35;100458.44;;;19.20;41.61
51999;BME280;38015;50.924;11.598;2022-09-21T05:08:05;100459.02;;;19.21;41.64
51999;BME280;38015;50.924;11.598;2022-09-21T05:10:36;100461.82;;;19.21;41.65
51999;BME280;38015;50.924;11.598;2022-09-21T05:13:06;100463.44;;;19.25;41.55
51999;BME280;38015;50.924;11.598;2022-09-21T05:15:37;100465.12;;;19.20;41.69
51999;BME280;38015;50.924;11.598;2022-09-21T05:18:08;100466.82;;;19.22;41.56
51999;BME280;38015;50.924;11.598;2022-09-21T05:20:38;100472.57;;;19.11;41.88
51999;BME280;38015;50.924;11.598;2022-09-21T05:23:08;100469.20;;;19.19;41.66
51999;BME280;38015;50.924;11.598;2022-09-21T05:25:39;100469.08;;;19.20;41.64
51999;BME280;38015;50.924;11.598;2022-09-21T05:28:10;100467.57;;;19.20;41.70
51999;BME280;38015;50.924;11.598;2022-09-21T05:30:40;100469.89;;;19.21;41.57
51999;BME280;38015;50.924;11.598;2022-09-21T05:33:14;100476.95;;;19.16;41.67
51999;BME280;38015;50.924;11.598;2022-09-21T05:35:44;100479.04;;;19.20;41.56
51999;BME280;38015;50.924;11.598;2022-09-21T05:38:14;100482.76;;;19.16;41.66
51999;BME280;38015;50.924;11.598;2022-09-21T05:40:42;100482.47;;;19.20;41.57
51999;BME280;38015;50.924;11.598;2022-09-21T05:43:13;100482.59;;;19.20;41.64
51999;BME280;38015;50.924;11.598;2022-09-21T05:45:45;100485.96;;;19.19;41.61
51999;BME280;38015;50.924;11.598;2022-09-21T05:48:16;100489.58;;;19.21;41.57
51999;BME280;38015;50.924;11.598;2022-09-21T05:50:53;100491.62;;;19.21;41.56
51999;BME280;38015;50.924;11.598;2022-09-21T05:53:23;100494.47;;;19.22;41.56
51999;BME280;38015;50.924;11.598;2022-09-21T05:55:51;100491.21;;;19.23;41.49
51999;BME280;38015;50.924;11.598;2022-09-21T05:58:23;100490.35;;;19.18;41.68
51999;BME280;38015;50.924;11.598;2022-09-21T06:00:54;100493.88;;;19.19;41.64
51999;BME280;38015;50.924;11.598;2022-09-21T06:03:24;100497.12;;;19.16;41.72
51999;BME280;38015;50.924;11.598;2022-09-21T06:05:47;100498.25;;;19.19;41.59
51999;BME280;38015;50.924;11.598;2022-09-21T06:08:17;100500.11;;;19.20;41.60
51999;BME280;38015;50.924;11.598;2022-09-21T06:10:48;100500.41;;;19.16;41.65
51999;BME280;38015;50.924;11.598;2022-09-21T06:13:18;100500.79;;;19.11;41.79
51999;BME280;38015;50.924;11.598;2022-09-21T06:15:49;100499.19;;;19.19;41.60
51999;BME280;38015;50.924;11.598;2022-09-21T06:18:19;100500.23;;;19.13;41.76
51999;BME280;38015;50.924;11.598;2022-09-21T06:20:50;100501.59;;;19.14;41.75
51999;BME280;38015;50.924;11.598;2022-09-21T06:23:21;100500.24;;;19.17;41.71
51999;BME280;38015;50.924;11.598;2022-09-21T06:25:51;100499.02;;;19.16;41.70
51999;BME280;38015;50.924;11.598;2022-09-21T06:28:21;100502.45;;;19.14;41.73
51999;BME280;38015;50.924;11.598;2022-09-21T06:30:53;100503.60;;;19.13;41.75
51999;BME280;38015;50.924;11.598;2022-09-21T06:33:22;100504.55;;;19.12;41.70
51999;BME280;38015;50.924;11.598;2022-09-21T06:35:54;100506.32;;;19.16;41.73
51999;BME280;38015;50.924;11.598;2022-09-21T06:38:24;100505.85;;;19.14;41.69
51999;BME280;38015;50.924;11.598;2022-09-21T06:40:54;100509.95;;;19.15;41.66
51999;BME280;38015;50.924;11.598;2022-09-21T06:43:24;100510.54;;;19.15;41.71
51999;BME280;38015;50.924;11.598;2022-09-21T06:45:56;100512.68;;;19.14;41.67
51999;BME280;38015;50.924;11.598;2022-09-21T06:48:26;100511.82;;;19.16;41.70
51999;BME280;38015;50.924;11.598;2022-09-21T06:50:56;100511.82;;;19.16;41.64
51999;BME280;38015;50.924;11.598;2022-09-21T06:53:27;100514.85;;;19.21;41.38
51999;BME280;38015;50.924;11.598;2022-09-21T06:55:59;100517.81;;;19.18;41.46
51999;BME280;38015;50.924;11.598;2022-09-21T06:58:28;100517.03;;;19.21;41.33
51999;BME280;38015;50.924;11.598;2022-09-21T07:00:57;100518.33;;;19.14;41.44
51999;BME280;38015;50.924;11.598;2022-09-21T07:03:28;100520.70;;;19.09;41.55
51999;BME280;38015;50.924;11.598;2022-09-21T07:05:58;100524.47;;;19.05;41.68
51999;BME280;38015;50.924;11.598;2022-09-21T07:08:29;100524.80;;;19.10;41.58
51999;BME280;38015;50.924;11.598;2022-09-21T07:11:00;100526.60;;;19.16;41.41
51999;BME280;38015;50.924;11.598;2022-09-21T07:13:30;100530.86;;;19.13;41.52
51999;BME280;38015;50.924;11.598;2022-09-21T07:16:03;100533.20;;;19.09;41.67
51999;BME280;38015;50.924;11.598;2022-09-21T07:18:31;100531.32;;;19.14;41.57
51999;BME280;38015;50.924;11.598;2022-09-21T07:21:02;100535.03;;;19.11;41.71
51999;BME280;38015;50.924;11.598;2022-09-21T07:23:32;100537.54;;;19.08;41.69
51999;BME280;38015;50.924;11.598;2022-09-21T07:26:05;100540.36;;;19.17;41.51
51999;BME280;38015;50.924;11.598;2022-09-21T07:28:33;100542.88;;;19.12;41.63
51999;BME280;38015;50.924;11.598;2022-09-21T07:31:05;100545.10;;;19.14;41.50
51999;BME280;38015;50.924;11.598;2022-09-21T07:33:35;100549.34;;;19.08;41.62
51999;BME280;38015;50.924;11.598;2022-09-21T07:36:05;100549.92;;;19.10;41.58
51999;BME280;38015;50.924;11.598;2022-09-21T07:38:36;100546.50;;;19.11;41.53
51999;BME280;38015;50.924;11.598;2022-09-21T07:41:06;100549.71;;;19.10;41.53
51999;BME280;38015;50.924;11.598;2022-09-21T07:43:36;100549.89;;;19.06;41.63
51999;BME280;38015;50.924;11.598;2022-09-21T07:46:07;100550.30;;;19.16;41.31
51999;BME280;38015;50.924;11.598;2022-09-21T07:48:37;100546.89;;;19.12;41.46
51999;BME280;38015;50.924;11.598;2022-09-21T07:51:09;100544.24;;;19.40;41.02
51999;BME280;38015;50.924;11.598;2022-09-21T07:53:40;100540.82;;;19.82;40.12
51999;BME280;38015;50.924;11.598;2022-09-21T07:56:11;100546.38;;;19.60;40.66
51999;BME280;38015;50.924;11.598;2022-09-21T07:58:40;100545.82;;;19.53;40.92
51999;BME280;38015;50.924;11.598;2022-09-21T08:01:09;100548.20;;;19.61;40.78
51999;BME280;38015;50.924;11.598;2022-09-21T08:03:40;100543.13;;;19.91;40.41
51999;BME280;38015;50.924;11.598;2022-09-21T08:06:11;100543.18;;;19.96;40.36
51999;BME280;38015;50.924;11.598;2022-09-21T08:08:41;100540.44;;;19.73;40.66
51999;BME280;38015;50.924;11.598;2022-09-21T08:11:11;100539.24;;;19.77;40.81
51999;BME280;38015;50.924;11.598;2022-09-21T08:13:42;100538.19;;;19.87;40.66
51999;BME280;38015;50.924;11.598;2022-09-21T08:16:12;100539.00;;;19.75;41.08
51999;BME280;38015;50.924;11.598;2022-09-21T08:18:43;100544.15;;;19.50;41.78
51999;BME280;38015;50.924;11.598;2022-09-21T08:21:13;100543.53;;;20.10;39.96
51999;BME280;38015;50.924;11.598;2022-09-21T08:23:43;100543.95;;;19.81;40.41
51999;BME280;38015;50.924;11.598;2022-09-21T08:26:17;100545.31;;;19.76;40.72
51999;BME280;38015;50.924;11.598;2022-09-21T08:28:45;100545.03;;;19.66;40.94
51999;BME280;38015;50.924;11.598;2022-09-21T08:31:16;100546.96;;;19.65;40.97
51999;BME280;38015;50.924;11.598;2022-09-21T08:33:46;100552.19;;;19.55;41.19
51999;BME280;38015;50.924;11.598;2022-09-21T08:36:17;100550.53;;;19.63;41.03
51999;BME280;38015;50.924;11.598;2022-09-21T08:38:47;100549.26;;;19.55;41.20
51999;BME280;38015;50.924;11.598;2022-09-21T08:41:19;100549.95;;;19.57;41.19
51999;BME280;38015;50.924;11.598;2022-09-21T08:43:52;100551.37;;;19.58;41.12
51999;BME280;38015;50.924;11.598;2022-09-21T08:46:20;100551.95;;;19.59;41.12
51999;BME280;38015;50.924;11.598;2022-09-21T08:48:53;100552.38;;;19.59;41.11
51999;BME280;38015;50.924;11.598;2022-09-21T08:51:23;100551.91;;;19.58;41.20
51999;BME280;38015;50.924;11.598;2022-09-21T08:53:52;100553.03;;;19.60;41.10
51999;BME280;38015;50.924;11.598;2022-09-21T08:56:22;100553.45;;;20.06;40.21
51999;BME280;38015;50.924;11.598;2022-09-21T08:58:52;100553.32;;;20.54;39.35
51999;BME280;38015;50.924;11.598;2022-09-21T09:01:32;100550.85;;;20.11;39.93
51999;BME280;38015;50.924;11.598;2022-09-21T09:04:03;100552.12;;;20.75;38.79
51999;BME280;38015;50.924;11.598;2022-09-21T09:06:28;100548.16;;;20.41;39.70
51999;BME280;38015;50.924;11.598;2022-09-21T09:09:03;100543.63;;;20.86;38.82
51999;BME280;38015;50.924;11.598;2022-09-21T09:11:36;100543.37;;;21.19;38.13
51999;BME280;38015;50.924;11.598;2022-09-21T09:14:06;100543.10;;;21.46;37.79
51999;BME280;38015;50.924;11.598;2022-09-21T09:16:29;100541.18;;;21.34;38.03
51999;BME280;38015;50.924;11.598;2022-09-21T09:18:59;100542.39;;;20.94;39.05
51999;BME280;38015;50.924;11.598;2022-09-21T09:21:30;100538.69;;;20.88;39.26
51999;BME280;38015;50.924;11.598;2022-09-21T09:24:00;100536.54;;;20.94;39.18
51999;BME280;38015;50.924;11.598;2022-09-21T09:26:31;100533.79;;;21.55;37.83
51999;BME280;38015;50.924;11.598;2022-09-21T09:28:59;100530.61;;;21.06;38.92
51999;BME280;38015;50.924;11.598;2022-09-21T09:31:29;100532.51;;;20.60;40.02
51999;BME280;38015;50.924;11.598;2022-09-21T09:34:00;100531.52;;;20.61;39.99
51999;BME280;38015;50.924;11.598;2022-09-21T09:36:30;100530.01;;;20.75;39.69
51999;BME280;38015;50.924;11.598;2022-09-21T09:39:02;100530.77;;;20.78;39.57
51999;BME280;38015;50.924;11.598;2022-09-21T09:41:43;100530.74;;;20.77;39.58
51999;BME280;38015;50.924;11.598;2022-09-21T09:44:11;100530.05;;;20.59;40.00
51999;BME280;38015;50.924;11.598;2022-09-21T09:46:32;100528.35;;;20.96;39.23
51999;BME280;38015;50.924;11.598;2022-09-21T09:49:12;100524.65;;;20.95;39.22
51999;BME280;38015;50.924;11.598;2022-09-21T09:51:30;100525.68;;;20.72;39.73
51999;BME280;38015;50.924;11.598;2022-09-21T09:54:00;100522.96;;;20.73;39.71
51999;BME280;38015;50.924;11.598;2022-09-21T09:56:31;100520.06;;;20.71;39.76
51999;BME280;38015;50.924;11.598;2022-09-21T09:59:04;100519.17;;;20.85;39.43
51999;BME280;38015;50.924;11.598;2022-09-21T10:01:38;100517.91;;;20.90;39.33
51999;BME280;38015;50.924;11.598;2022-09-21T10:04:05;100516.21;;;21.08;39.08
51999;BME280;38015;50.924;11.598;2022-09-21T10:06:33;100512.80;;;21.24;38.65
51999;BME280;38015;50.924;11.598;2022-09-21T10:11:35;100510.87;;;21.66;37.99
51999;BME280;38015;50.924;11.598;2022-09-21T10:14:09;100508.23;;;21.59;38.33
51999;BME280;38015;50.924;11.598;2022-09-21T10:16:40;100505.16;;;21.52;38.60
51999;BME280;38015;50.924;11.598;2022-09-21T10:19:10;100505.74;;;21.56;38.60
51999;BME280;38015;50.924;11.598;2022-09-21T10:21:36;100506.18;;;21.37;39.06
51999;BME280;38015;50.924;11.598;2022-09-21T10:24:14;100499.54;;;21.47;38.99
51999;BME280;38015;50.924;11.598;2022-09-21T10:26:43;100499.81;;;21.59;38.80
51999;BME280;38015;50.924;11.598;2022-09-21T10:29:16;100496.50;;;21.69;38.70
51999;BME280;38015;50.924;11.598;2022-09-21T10:34:12;100491.21;;;21.65;38.89
51999;BME280;38015;50.924;11.598;2022-09-21T10:36:38;100489.65;;;21.53;39.21
51999;BME280;38015;50.924;11.598;2022-09-21T10:39:20;100491.83;;;21.65;39.01
51999;BME280;38015;50.924;11.598;2022-09-21T10:41:39;100491.08;;;21.74;38.83
51999;BME280;38015;50.924;11.598;2022-09-21T10:44:14;100487.51;;;21.84;38.70
51999;BME280;38015;50.924;11.598;2022-09-21T10:46:40;100484.74;;;21.93;38.57
51999;BME280;38015;50.924;11.598;2022-09-21T10:49:18;100486.68;;;21.80;38.90
51999;BME280;38015;50.924;11.598;2022-09-21T10:51:44;100481.65;;;21.66;39.23
51999;BME280;38015;50.924;11.598;2022-09-21T10:54:16;100482.85;;;21.72;39.10
51999;BME280;38015;50.924;11.598;2022-09-21T10:59:20;100478.13;;;21.60;39.43
51999;BME280;38015;50.924;11.598;2022-09-21T11:01:44;100481.88;;;21.83;38.97
51999;BME280;38015;50.924;11.598;2022-09-21T11:04:19;100479.72;;;21.89;38.89
51999;BME280;38015;50.924;11.598;2022-09-21T11:06:46;100480.34;;;21.88;38.96
51999;BME280;38015;50.924;11.598;2022-09-21T11:09:19;100482.05;;;21.90;38.86
51999;BME280;38015;50.924;11.598;2022-09-21T11:11:50;100477.88;;;22.02;38.63
51999;BME280;38015;50.924;11.598;2022-09-21T11:14:24;100480.03;;;22.07;38.56
51999;BME280;38015;50.924;11.598;2022-09-21T11:16:52;100483.36;;;22.11;38.54
51999;BME280;38015;50.924;11.598;2022-09-21T11:19:21;100482.00;;;22.11;38.58
51999;BME280;38015;50.924;11.598;2022-09-21T11:21:53;100483.61;;;22.05;38.71
51999;BME280;38015;50.924;11.598;2022-09-21T11:24:22;100483.84;;;22.01;38.88
51999;BME280;38015;50.924;11.598;2022-09-21T11:26:53;100481.04;;;21.69;39.63
51999;BME280;38015;50.924;11.598;2022-09-21T11:29:23;100479.03;;;22.13;38.73
51999;BME280;38015;50.924;11.598;2022-09-21T11:31:59;100477.61;;;22.04;38.87
51999;BME280;38015;50.924;11.598;2022-09-21T11:34:28;100476.25;;;22.12;38.81
51999;BME280;38015;50.924;11.598;2022-09-21T11:36:55;100478.43;;;21.97;39.11
51999;BME280;38015;50.924;11.598;2022-09-21T11:39:26;100478.10;;;21.84;39.37
51999;BME280;38015;50.924;11.598;2022-09-21T11:42:01;100475.18;;;21.89;38.97
51999;BME280;38015;50.924;11.598;2022-09-21T11:44:34;100465.00;;;21.52;39.90
51999;BME280;38015;50.924;11.598;2022-09-21T11:46:58;100468.30;;;21.75;39.42
51999;BME280;38015;50.924;11.598;2022-09-21T11:49:33;100470.17;;;21.95;39.08
51999;BME280;38015;50.924;11.598;2022-09-21T11:52:03;100467.06;;;22.04;38.90
51999;BME280;38015;50.924;11.598;2022-09-21T11:56:56;100464.44;;;22.05;39.00
51999;BME280;38015;50.924;11.598;2022-09-21T11:59:37;100462.58;;;22.05;39.08
51999;BME280;38015;50.924;11.598;2022-09-21T12:02:03;100461.96;;;21.93;39.29
51999;BME280;38015;50.924;11.598;2022-09-21T12:04:33;100457.75;;;22.06;39.09
51999;BME280;38015;50.924;11.598;2022-09-21T12:07:03;100455.09;;;22.05;39.21
51999;BME280;38015;50.924;11.598;2022-09-21T12:12:02;100451.22;;;22.06;39.04
51999;BME280;38015;50.924;11.598;2022-09-21T12:14:31;100450.22;;;22.22;38.64
51999;BME280;38015;50.924;11.598;2022-09-21T12:17:02;100447.79;;;22.10;38.90
51999;BME280;38015;50.924;11.598;2022-09-21T12:19:33;100444.27;;;22.12;38.93
51999;BME280;38015;50.924;11.598;2022-09-21T12:22:02;100441.94;;;22.02;39.23
51999;BME280;38015;50.924;11.598;2022-09-21T12:24:30;100442.90;;;21.96;39.37
51999;BME280;38015;50.924;11.598;2022-09-21T12:27:01;100444.43;;;22.18;38.90
51999;BME280;38015;50.924;11.598;2022-09-21T12:29:32;100442.51;;;21.91;39.43
51999;BME280;38015;50.924;11.598;2022-09-21T12:32:03;100437.82;;;22.12;39.07
51999;BME280;38015;50.924;11.598;2022-09-21T12:34:33;100437.38;;;21.96;39.44
51999;BME280;38015;50.924;11.598;2022-09-21T12:37:06;100437.33;;;22.25;38.69
51999;BME280;38015;50.924;11.598;2022-09-21T12:39:34;100436.98;;;22.12;39.04
51999;BME280;38015;50.924;11.598;2022-09-21T12:44:35;100434.92;;;22.18;38.94
51999;BME280;38015;50.924;11.598;2022-09-21T12:47:04;100434.10;;;22.11;39.14
51999;BME280;38015;50.924;11.598;2022-09-21T12:49:32;100433.05;;;21.97;39.44
51999;BME280;38015;50.924;11.598;2022-09-21T12:52:02;100430.20;;;22.02;39.36
51999;BME280;38015;50.924;11.598;2022-09-21T12:54:37;100428.21;;;22.05;39.33
51999;BME280;38015;50.924;11.598;2022-09-21T12:57:09;100427.90;;;21.96;39.64
51999;BME280;38015;50.924;11.598;2022-09-21T12:59:36;100425.44;;;22.15;39.23
51999;BME280;38015;50.924;11.598;2022-09-21T13:02:14;100422.70;;;22.12;39.41
51999;BME280;38015;50.924;11.598;2022-09-21T13:04:41;100425.47;;;22.02;39.63
51999;BME280;38015;50.924;11.598;2022-09-21T13:07:19;100423.09;;;22.16;39.24
51999;BME280;38015;50.924;11.598;2022-09-21T13:09:38;100418.89;;;22.36;38.93
51999;BME280;38015;50.924;11.598;2022-09-21T13:12:08;100419.39;;;22.55;38.47